Time;durP1;ratioP1;P1;durP2;ratioP2;P2;SDS_P1;SDS_P2;PMS_P1;PMS_P2;Temp;Humidity;BMP_temperature;BMP_pressure;BME280_temperature;BME280_humidity;BME280_pressure;Samples;Min_cycle;Max_cycle;Signal;HPM_P1;HPM_P2
2023/06/16 00:00:12;;;;;;;6.25;3.45;;;;;;;;;;5072255;28;20094;-77
2023/06/16 00:02:43;;;;;;;9.05;3.60;;;;;;;;;;5062900;28;20087;-77
2023/06/16 00:05:10;;;;;;;8.38;3.67;;;;;;;;;;5061772;28;20394;-77
2023/06/16 00:07:36;;;;;;;8.18;3.58;;;;;;;;;;5078131;28;20045;-83
2023/06/16 00:10:04;;;;;;;6.88;3.70;;;;;;;;;;5046092;28;20051;-77
2023/06/16 00:12:30;;;;;;;9.55;4.10;;;;;;;;;;5054317;28;20056;-76
2023/06/16 00:14:56;;;;;;;11.48;4.00;;;;;;;;;;5057310;28;20125;-77
2023/06/16 00:17:23;;;;;;;9.80;3.72;;;;;;;;;;5082222;28;20055;-80
2023/06/16 00:19:50;;;;;;;9.98;3.80;;;;;;;;;;5072709;28;20110;-77
2023/06/16 00:22:17;;;;;;;8.80;3.90;;;;;;;;;;5089690;28;20082;-77
2023/06/16 00:24:45;;;;;;;6.38;3.90;;;;;;;;;;5077016;28;20044;-77
2023/06/16 00:27:11;;;;;;;13.23;4.40;;;;;;;;;;5090948;28;20041;-79
2023/06/16 00:29:38;;;;;;;11.77;4.07;;;;;;;;;;5077092;28;20138;-83
2023/06/16 00:32:04;;;;;;;9.25;4.43;;;;;;;;;;5060794;28;20056;-77
2023/06/16 00:34:30;;;;;;;10.13;4.25;;;;;;;;;;5071044;28;20559;-78
2023/06/16 00:36:57;;;;;;;11.68;4.60;;;;;;;;;;5070877;28;20401;-77
2023/06/16 00:39:24;;;;;;;9.35;4.40;;;;;;;;;;5067869;28;20052;-76
2023/06/16 00:41:50;;;;;;;9.73;4.40;;;;;;;;;;5070545;28;20048;-77
2023/06/16 00:44:16;;;;;;;10.10;4.88;;;;;;;;;;5070750;28;20040;-79
2023/06/16 00:46:42;;;;;;;;;;;;;;;;;;5064643;28;20483;-77
2023/06/16 00:49:08;;;;;;;11.55;4.72;;;;;;;;;;5065421;28;19927;-78
2023/06/16 00:51:34;;;;;;;7.70;4.80;;;;;;;;;;5067412;28;20414;-77
2023/06/16 00:54:01;;;;;;;11.40;5.07;;;;;;;;;;5067583;28;20085;-77
2023/06/16 00:56:27;;;;;;;;;;;;;;;;;;5051684;28;20044;-77
2023/06/16 00:58:53;;;;;;;14.35;4.22;;;;;;;;;;5052415;28;20408;-77
2023/06/16 01:01:20;;;;;;;11.07;4.00;;;;;;;;;;5054989;28;20091;-78
2023/06/16 01:03:50;;;;;;;8.18;3.95;;;;;;;;;;5037820;28;20045;-77
2023/06/16 01:06:37;;;;;;;11.50;4.30;;;;;;;;;;5054965;28;20053;-78
2023/06/16 01:09:14;;;;;;;11.80;4.88;;;;;;;;;;5047614;28;20143;-77
2023/06/16 01:12:03;;;;;;;11.45;4.90;;;;;;;;;;5063603;28;20076;-82
2023/06/16 01:14:40;;;;;;;11.65;4.40;;;;;;;;;;5074806;28;20129;-78
2023/06/16 01:17:07;;;;;;;7.63;4.13;;;;;;;;;;5074008;28;20056;-77
2023/06/16 01:19:37;;;;;;;8.25;4.45;;;;;;;;;;5074569;28;20060;-77
2023/06/16 01:22:03;;;;;;;9.13;4.70;;;;;;;;;;5074291;28;20059;-78
2023/06/16 01:24:30;;;;;;;13.60;4.72;;;;;;;;;;5074654;28;20040;-77
2023/06/16 01:26:57;;;;;;;7.35;4.60;;;;;;;;;;5074208;28;20094;-77
2023/06/16 01:29:24;;;;;;;10.30;4.95;;;;;;;;;;5074247;28;20048;-78
2023/06/16 01:31:52;;;;;;;12.60;4.82;;;;;;;;;;5074188;28;20037;-77
2023/06/16 01:34:19;;;;;;;7.13;4.53;;;;;;;;;;5074194;28;20037;-77
2023/06/16 01:36:47;;;;;;;12.10;4.70;;;;;;;;;;5073938;28;20056;-78
2023/06/16 01:39:15;;;;;;;9.82;4.53;;;;;;;;;;5054407;28;20131;-77
2023/06/16 01:41:41;;;;;;;10.18;5.43;;;;;;;;;;5054444;28;20048;-77
2023/06/16 01:44:07;;;;;;;;;;;;;;;;;;5054490;28;20052;-77
2023/06/16 01:46:33;;;;;;;9.05;5.10;;;;;;;;;;5053710;28;19927;-77
2023/06/16 01:49:00;;;;;;;8.80;5.30;;;;;;;;;;5053929;28;20041;-80
2023/06/16 01:51:26;;;;;;;8.80;5.50;;;;;;;;;;5052760;28;20045;-79
2023/06/16 01:53:52;;;;;;;;;;;;;;;;;;5054159;28;20174;-80
2023/06/16 01:56:18;;;;;;;10.57;5.18;;;;;;;;;;5054073;28;20358;-79
2023/06/16 01:58:44;;;;;;;11.77;5.53;;;;;;;;;;5053217;28;20114;-88
2023/06/16 02:01:20;;;;;;;9.57;5.60;;;;;;;;;;5053713;28;20053;-79
2023/06/16 02:04:09;;;;;;;10.65;5.70;;;;;;;;;;5056523;28;20048;-85
2023/06/16 02:06:58;;;;;;;8.82;5.63;;;;;;;;;;5073997;28;20076;-79
2023/06/16 02:09:26;;;;;;;8.75;5.50;;;;;;;;;;5067782;28;20505;-79
2023/06/16 02:11:54;;;;;;;8.93;5.20;;;;;;;;;;5073806;28;20056;-79
2023/06/16 02:14:21;;;;;;;9.90;5.82;;;;;;;;;;5072566;28;20064;-81
2023/06/16 02:16:50;;;;;;;10.02;5.32;;;;;;;;;;5063488;28;20048;-88
2023/06/16 02:19:16;;;;;;;14.75;6.10;;;;;;;;;;5056679;28;20086;-81
2023/06/16 02:21:43;;;;;;;9.38;5.65;;;;;;;;;;5073104;28;20076;-79
2023/06/16 02:24:09;;;;;;;12.32;6.43;;;;;;;;;;5056179;28;20118;-79
2023/06/16 02:26:35;;;;;;;;;;;;;;;;;;5040556;28;20044;-79
2023/06/16 02:29:01;;;;;;;12.98;6.93;;;;;;;;;;5073028;28;20424;-80
2023/06/16 02:31:27;;;;;;;12.90;6.68;;;;;;;;;;5073217;28;20402;-78
2023/06/16 02:33:54;;;;;;;19.00;6.93;;;;;;;;;;5056421;28;20044;-79
2023/06/16 02:36:21;;;;;;;10.60;6.50;;;;;;;;;;5073076;28;20052;-79
2023/06/16 02:38:47;;;;;;;9.93;5.45;;;;;;;;;;5056514;28;20060;-86
2023/06/16 02:41:13;;;;;;;13.40;5.55;;;;;;;;;;5072933;28;20546;-79
2023/06/16 02:43:39;;;;;;;;;;;;;;;;;;5073510;28;20044;-79
2023/06/16 02:46:05;;;;;;;9.55;5.63;;;;;;;;;;5072357;28;20366;-79
2023/06/16 02:48:31;;;;;;;10.13;5.63;;;;;;;;;;5071767;28;20553;-79
2023/06/16 02:50:57;;;;;;;8.75;5.75;;;;;;;;;;5072312;28;20478;-78
2023/06/16 02:53:24;;;;;;;13.05;6.28;;;;;;;;;;5069470;28;20507;-79
2023/06/16 02:55:55;;;;;;;10.88;6.50;;;;;;;;;;5062637;28;20127;-86
2023/06/16 02:58:22;;;;;;;9.90;5.95;;;;;;;;;;5054425;28;20048;-79
2023/06/16 03:00:48;;;;;;;13.00;6.68;;;;;;;;;;5071751;28;20502;-79
2023/06/16 03:03:14;;;;;;;12.95;6.85;;;;;;;;;;5071946;28;20136;-79
2023/06/16 03:05:41;;;;;;;13.80;6.97;;;;;;;;;;5072914;28;20052;-79
2023/06/16 03:08:07;;;;;;;14.43;7.60;;;;;;;;;;5077668;28;20075;-79
2023/06/16 03:10:33;;;;;;;14.45;7.43;;;;;;;;;;5053272;28;20060;-78
2023/06/16 03:12:59;;;;;;;16.25;7.65;;;;;;;;;;5066773;28;20398;-79
2023/06/16 03:15:27;;;;;;;12.93;7.75;;;;;;;;;;5053092;28;20529;-79
2023/06/16 03:17:53;;;;;;;13.77;8.30;;;;;;;;;;5053750;28;20114;-85
2023/06/16 03:20:21;;;;;;;12.48;8.30;;;;;;;;;;5041062;28;20044;-78
2023/06/16 03:22:47;;;;;;;15.00;7.97;;;;;;;;;;5071929;28;20374;-79
2023/06/16 03:25:15;;;;;;;13.43;7.78;;;;;;;;;;5072000;28;20625;-79
2023/06/16 03:27:41;;;;;;;15.13;8.43;;;;;;;;;;5070182;28;20052;-82
2023/06/16 03:30:08;;;;;;;15.73;8.07;;;;;;;;;;5071836;28;20102;-79
2023/06/16 03:32:35;;;;;;;14.35;8.98;;;;;;;;;;5071326;28;20048;-79
2023/06/16 03:35:04;;;;;;;13.50;7.95;;;;;;;;;;5054749;28;20478;-80
2023/06/16 03:37:31;;;;;;;13.55;8.35;;;;;;;;;;5054514;28;20162;-80
2023/06/16 03:40:05;;;;;;;11.55;7.78;;;;;;;;;;5088517;28;20040;-80
2023/06/16 03:42:31;;;;;;;15.50;7.70;;;;;;;;;;5072270;28;20055;-79
2023/06/16 03:44:57;;;;;;;13.80;7.75;;;;;;;;;;5071995;28;20043;-79
2023/06/16 03:47:23;;;;;;;12.52;7.28;;;;;;;;;;5072090;28;20102;-82
2023/06/16 03:49:50;;;;;;;13.13;7.60;;;;;;;;;;5051923;28;20128;-79
2023/06/16 03:52:16;;;;;;;12.18;7.63;;;;;;;;;;5051706;28;20063;-79
2023/06/16 03:54:42;;;;;;;;;;;;;;;;;;5052433;28;20131;-81
2023/06/16 03:57:08;;;;;;;14.25;7.70;;;;;;;;;;5052249;28;20051;-79
2023/06/16 03:59:35;;;;;;;12.60;7.50;;;;;;;;;;5071967;28;20074;-79
2023/06/16 04:02:06;;;;;;;12.48;7.70;;;;;;;;;;5054773;28;20555;-79
2023/06/16 04:04:32;;;;;;;13.25;7.82;;;;;;;;;;5071858;28;20174;-78
2023/06/16 04:07:00;;;;;;;;;;;;;;;;;;5072112;28;20056;-80
2023/06/16 04:09:26;;;;;;;13.90;7.40;;;;;;;;;;5071465;28;19932;-78
2023/06/16 04:11:52;;;;;;;;;;;;;;;;;;5072591;28;20040;-78
2023/06/16 04:14:18;;;;;;;13.30;7.25;;;;;;;;;;5071432;28;19920;-78
2023/06/16 04:16:44;;;;;;;14.50;7.78;;;;;;;;;;5072701;28;20136;-79
2023/06/16 04:19:10;;;;;;;;;;;;;;;;;;5071919;28;20053;-78
2023/06/16 04:21:36;;;;;;;12.02;7.45;;;;;;;;;;5072884;28;20379;-79
2023/06/16 04:24:02;;;;;;;15.43;7.95;;;;;;;;;;5071343;28;20055;-79
2023/06/16 04:26:29;;;;;;;13.63;7.88;;;;;;;;;;5071243;28;20493;-79
2023/06/16 04:28:55;;;;;;;;;;;;;;;;;;5071861;28;20462;-78
2023/06/16 04:31:28;;;;;;;16.40;7.82;;;;;;;;;;5088184;28;19920;-78
2023/06/16 04:33:56;;;;;;;14.57;7.55;;;;;;;;;;5074636;28;20087;-78
2023/06/16 04:36:22;;;;;;;15.15;6.85;;;;;;;;;;5075771;28;20103;-78
2023/06/16 04:38:48;;;;;;;14.88;7.43;;;;;;;;;;5042502;28;20131;-78
2023/06/16 04:41:14;;;;;;;;;;;;;;;;;;5075886;28;20502;-78
2023/06/16 04:43:41;;;;;;;15.15;7.55;;;;;;;;;;5058624;28;19920;-79
2023/06/16 04:46:07;;;;;;;16.63;7.60;;;;;;;;;;5075444;28;20135;-78
2023/06/16 04:48:33;;;;;;;14.05;8.73;;;;;;;;;;5075288;28;20044;-78
2023/06/16 04:50:59;;;;;;;13.60;8.07;;;;;;;;;;5075459;28;20048;-80
2023/06/16 04:53:27;;;;;;;13.52;7.95;;;;;;;;;;5074852;28;20150;-78
2023/06/16 04:55:53;;;;;;;12.48;8.10;;;;;;;;;;5075296;28;20055;-78
2023/06/16 04:58:19;;;;;;;;;;;;;;;;;;5074429;28;20504;-78
2023/06/16 05:00:45;;;;;;;18.20;8.60;;;;;;;;;;5068144;28;20005;-81
2023/06/16 05:03:11;;;;;;;13.25;8.43;;;;;;;;;;5068463;28;20367;-78
2023/06/16 05:05:37;;;;;;;15.02;8.77;;;;;;;;;;5076048;28;20102;-78
2023/06/16 05:08:03;;;;;;;15.55;8.15;;;;;;;;;;5074534;28;20531;-85
2023/06/16 05:10:30;;;;;;;15.13;8.77;;;;;;;;;;5074611;28;20044;-78
2023/06/16 05:12:58;;;;;;;14.10;9.27;;;;;;;;;;5074439;28;20741;-78
2023/06/16 05:15:24;;;;;;;12.77;9.30;;;;;;;;;;5058096;28;20110;-78
2023/06/16 05:17:50;;;;;;;14.45;9.57;;;;;;;;;;5074235;28;20473;-78
2023/06/16 05:20:16;;;;;;;;;;;;;;;;;;5075269;28;20087;-80
2023/06/16 05:22:42;;;;;;;13.25;9.65;;;;;;;;;;5073945;28;19920;-78
2023/06/16 05:25:09;;;;;;;19.02;10.27;;;;;;;;;;5074542;28;20498;-78
2023/06/16 05:27:35;;;;;;;;;;;;;;;;;;5068685;28;20793;-78
2023/06/16 05:30:01;;;;;;;19.27;10.23;;;;;;;;;;5054830;28;19921;-78
2023/06/16 05:32:27;;;;;;;;;;;;;;;;;;5054701;28;20127;-81
2023/06/16 05:34:53;;;;;;;17.85;10.13;;;;;;;;;;5054659;28;20366;-78
2023/06/16 05:37:20;;;;;;;16.38;10.73;;;;;;;;;;5053966;28;20047;-79
2023/06/16 05:39:47;;;;;;;19.55;11.13;;;;;;;;;;5038311;28;20098;-78
2023/06/16 05:42:14;;;;;;;17.52;11.77;;;;;;;;;;5054271;28;20482;-77
2023/06/16 05:44:40;;;;;;;20.13;11.77;;;;;;;;;;5037139;28;20077;-78
2023/06/16 05:47:07;;;;;;;19.02;11.70;;;;;;;;;;5070580;28;20045;-85
2023/06/16 05:49:33;;;;;;;;;;;;;;;;;;5074516;28;20084;-78
2023/06/16 05:52:01;;;;;;;17.80;11.52;;;;;;;;;;5074228;28;19920;-78
2023/06/16 05:54:27;;;;;;;19.02;12.05;;;;;;;;;;5073999;28;20051;-78
2023/06/16 05:56:53;;;;;;;;;;;;;;;;;;5057589;28;20044;-78
2023/06/16 05:59:19;;;;;;;19.75;12.73;;;;;;;;;;5073072;28;20282;-78
2023/06/16 06:01:46;;;;;;;18.83;12.15;;;;;;;;;;5073979;28;20052;-78
2023/06/16 06:04:12;;;;;;;21.98;12.85;;;;;;;;;;5073699;28;20048;-78
2023/06/16 06:06:38;;;;;;;;;;;;;;;;;;5074358;28;20067;-78
2023/06/16 06:09:04;;;;;;;18.42;11.43;;;;;;;;;;5039089;28;19951;-78
2023/06/16 06:11:31;;;;;;;19.00;11.75;;;;;;;;;;5057964;28;20048;-79
2023/06/16 06:13:57;;;;;;;17.80;10.82;;;;;;;;;;5064576;28;20044;-82
2023/06/16 06:16:23;;;;;;;18.67;11.65;;;;;;;;;;5072931;28;20087;-80
2023/06/16 06:18:50;;;;;;;;;;;;;;;;;;5074702;28;20702;-78
2023/06/16 06:21:16;;;;;;;18.67;12.07;;;;;;;;;;5079094;28;20374;-78
2023/06/16 06:23:42;;;;;;;18.30;11.60;;;;;;;;;;5068119;28;20055;-78
2023/06/16 06:26:08;;;;;;;;;;;;;;;;;;5074295;28;20098;-78
2023/06/16 06:28:34;;;;;;;16.95;10.95;;;;;;;;;;5073526;28;20007;-79
2023/06/16 06:31:00;;;;;;;;;;;;;;;;;;5089745;28;20486;-78
2023/06/16 06:33:27;;;;;;;15.35;10.70;;;;;;;;;;5073102;28;20014;-78
2023/06/16 06:35:53;;;;;;;14.80;9.90;;;;;;;;;;5058382;28;20131;-84
2023/06/16 06:38:19;;;;;;;;;;;;;;;;;;5091409;28;20485;-67
2023/06/16 06:40:45;;;;;;;14.52;8.52;;;;;;;;;;5077530;28;19920;-69
2023/06/16 06:43:12;;;;;;;;;;;;;;;;;;5070772;28;20375;-70
2023/06/16 06:45:38;;;;;;;11.82;8.55;;;;;;;;;;5050396;28;19920;-69
2023/06/16 06:48:04;;;;;;;;;;;;;;;;;;5070642;28;20040;-83
2023/06/16 06:50:30;;;;;;;15.98;10.00;;;;;;;;;;5052530;28;19946;-83
2023/06/16 06:52:56;;;;;;;;;;;;;;;;;;5053025;28;20386;-83
2023/06/16 06:55:22;;;;;;;14.25;8.90;;;;;;;;;;5068155;28;19927;-70
2023/06/16 06:57:49;;;;;;;;;;;;;;;;;;5051927;28;20095;-70
2023/06/16 07:00:16;;;;;;;12.98;8.13;;;;;;;;;;5053697;28;19920;-70
2023/06/16 07:02:42;;;;;;;12.65;8.75;;;;;;;;;;5051198;28;20716;-69
2023/06/16 07:05:08;;;;;;;;;;;;;;;;;;5052567;28;20181;-69
2023/06/16 07:07:34;;;;;;;13.85;8.93;;;;;;;;;;5051055;28;19920;-69
2023/06/16 07:10:01;;;;;;;13.55;9.07;;;;;;;;;;5056543;28;20037;-68
2023/06/16 07:12:27;;;;;;;16.60;8.73;;;;;;;;;;5069622;28;20047;-68
2023/06/16 07:14:53;;;;;;;12.10;7.85;;;;;;;;;;5067380;28;20053;-70
2023/06/16 07:17:19;;;;;;;;;;;;;;;;;;5067246;28;20405;-69
2023/06/16 07:19:45;;;;;;;14.55;8.00;;;;;;;;;;5085016;28;19931;-69
2023/06/16 07:22:11;;;;;;;;;;;;;;;;;;5089802;28;20044;-70
2023/06/16 07:24:37;;;;;;;19.83;7.60;;;;;;;;;;5088930;28;19935;-70
2023/06/16 07:27:03;;;;;;;;;;;;;;;;;;5091410;28;20036;-69
2023/06/16 07:29:30;;;;;;;10.48;6.82;;;;;;;;;;5089462;28;20296;-70
2023/06/16 07:31:56;;;;;;;13.55;7.93;;;;;;;;;;5089019;28;20058;-70
2023/06/16 07:34:22;;;;;;;;;;;;;;;;;;5070602;28;20141;-70
2023/06/16 07:36:48;;;;;;;10.82;7.10;;;;;;;;;;5077278;28;19958;-70
2023/06/16 07:39:14;;;;;;;;;;;;;;;;;;5081407;28;20126;-69
2023/06/16 07:41:40;;;;;;;13.60;7.00;;;;;;;;;;5090072;28;19923;-70
2023/06/16 07:44:06;;;;;;;;;;;;;;;;;;5090570;28;20051;-70
2023/06/16 07:46:32;;;;;;;12.90;7.45;;;;;;;;;;5077107;28;19926;-70
2023/06/16 07:48:59;;;;;;;13.65;6.68;;;;;;;;;;5076516;28;20044;-70
2023/06/16 07:51:25;;;;;;;11.98;7.38;;;;;;;;;;5087799;28;20054;-70
2023/06/16 07:53:51;;;;;;;;;;;;;;;;;;5089982;28;20036;-70
2023/06/16 07:56:18;;;;;;;7.97;5.18;;;;;;;;;;5083217;28;20361;-70
2023/06/16 07:58:44;;;;;;;11.07;7.03;;;;;;;;;;5089086;28;20106;-70
2023/06/16 08:01:10;;;;;;;11.77;7.78;;;;;;;;;;5087651;28;20509;-72
2023/06/16 08:03:36;;;;;;;12.43;7.68;;;;;;;;;;5076565;28;20448;-80
2023/06/16 08:06:02;;;;;;;;;;;;;;;;;;5072624;28;20122;-81
2023/06/16 08:08:28;;;;;;;10.13;7.05;;;;;;;;;;5071069;28;19935;-79
2023/06/16 08:10:58;;;;;;;10.27;7.07;;;;;;;;;;5087600;28;20420;-77
2023/06/16 08:13:24;;;;;;;12.32;7.28;;;;;;;;;;5091207;28;20393;-79
2023/06/16 08:15:50;;;;;;;13.35;6.90;;;;;;;;;;5081878;28;20057;-79
2023/06/16 08:18:19;;;;;;;9.55;6.50;;;;;;;;;;5074964;28;20052;-78
2023/06/16 08:20:48;;;;;;;15.85;7.25;;;;;;;;;;5078478;28;20092;-78
2023/06/16 08:23:14;;;;;;;10.52;6.85;;;;;;;;;;5068740;28;20067;-82
2023/06/16 08:25:40;;;;;;;12.40;7.47;;;;;;;;;;5071576;28;20470;-78
2023/06/16 08:28:07;;;;;;;9.38;6.68;;;;;;;;;;5081623;28;20058;-80
2023/06/16 08:30:36;;;;;;;8.80;5.60;;;;;;;;;;5071290;28;20375;-79
2023/06/16 08:33:02;;;;;;;7.80;5.28;;;;;;;;;;5072000;28;20389;-78
2023/06/16 08:35:29;;;;;;;8.95;5.78;;;;;;;;;;5075105;28;20134;-78
2023/06/16 08:37:55;;;;;;;7.50;4.95;;;;;;;;;;5059659;28;20094;-79
2023/06/16 08:40:21;;;;;;;;;;;;;;;;;;5071849;28;20051;-78
2023/06/16 08:42:47;;;;;;;8.43;5.30;;;;;;;;;;5083495;28;19920;-79
2023/06/16 08:45:14;;;;;;;8.75;5.50;;;;;;;;;;5071225;28;20098;-78
2023/06/16 08:47:42;;;;;;;9.65;4.85;;;;;;;;;;5083790;28;20481;-77
2023/06/16 08:50:09;;;;;;;7.75;5.20;;;;;;;;;;5091763;28;20044;-78
2023/06/16 08:52:38;;;;;;;9.10;4.65;;;;;;;;;;5077541;28;20063;-79
2023/06/16 08:55:06;;;;;;;10.07;4.50;;;;;;;;;;5081174;28;20426;-79
2023/06/16 08:57:33;;;;;;;8.10;4.70;;;;;;;;;;5074377;28;20079;-79
2023/06/16 09:00:00;;;;;;;8.50;5.05;;;;;;;;;;5074766;28;20044;-79
2023/06/16 09:02:29;;;;;;;8.32;4.55;;;;;;;;;;5078940;28;20519;-85
2023/06/16 09:04:56;;;;;;;7.82;4.15;;;;;;;;;;5059823;28;20133;-77
2023/06/16 09:07:27;;;;;;;8.35;5.20;;;;;;;;;;5090078;28;20056;-80
2023/06/16 09:09:53;;;;;;;8.18;4.55;;;;;;;;;;5058912;28;20127;-77
2023/06/16 09:12:19;;;;;;;8.93;5.15;;;;;;;;;;5084578;28;20095;-77
2023/06/16 09:14:49;;;;;;;7.60;4.55;;;;;;;;;;5081033;28;20052;-77
2023/06/16 09:17:18;;;;;;;8.40;4.90;;;;;;;;;;5060332;28;20122;-77
2023/06/16 09:19:47;;;;;;;14.45;6.35;;;;;;;;;;5081611;28;20057;-77
2023/06/16 09:22:18;;;;;;;6.80;4.57;;;;;;;;;;5074561;28;20044;-77
2023/06/16 09:24:45;;;;;;;14.55;5.38;;;;;;;;;;5071063;28;20053;-77
2023/06/16 09:27:12;;;;;;;12.05;5.40;;;;;;;;;;5054855;28;20044;-77
2023/06/16 09:29:39;;;;;;;7.82;5.30;;;;;;;;;;5054467;28;20471;-77
2023/06/16 09:32:09;;;;;;;8.18;5.05;;;;;;;;;;5054953;28;20391;-77
2023/06/16 09:34:37;;;;;;;7.30;4.75;;;;;;;;;;5054101;28;20445;-77
2023/06/16 09:37:06;;;;;;;8.82;5.28;;;;;;;;;;5054396;28;20048;-77
2023/06/16 09:39:32;;;;;;;6.70;4.85;;;;;;;;;;5054068;28;20132;-77
2023/06/16 09:42:01;;;;;;;8.50;4.82;;;;;;;;;;5054434;28;20136;-77
2023/06/16 09:44:27;;;;;;;39.97;6.75;;;;;;;;;;5071563;28;20501;-79
2023/06/16 09:46:54;;;;;;;7.22;4.60;;;;;;;;;;5074498;28;20072;-78
2023/06/16 09:49:25;;;;;;;11.43;5.53;;;;;;;;;;5073301;28;20055;-78
2023/06/16 09:51:52;;;;;;;9.20;5.07;;;;;;;;;;5073756;28;20049;-78
2023/06/16 09:54:19;;;;;;;9.90;4.88;;;;;;;;;;5075225;28;20048;-77
2023/06/16 09:56:46;;;;;;;7.32;4.57;;;;;;;;;;5073906;28;20170;-78
2023/06/16 09:59:12;;;;;;;13.93;5.57;;;;;;;;;;5074263;28;20059;-77
2023/06/16 10:01:40;;;;;;;8.38;4.88;;;;;;;;;;5073674;28;20079;-77
2023/06/16 10:04:09;;;;;;;9.57;4.70;;;;;;;;;;5073839;28;20428;-79
2023/06/16 10:06:38;;;;;;;10.13;5.30;;;;;;;;;;5073293;28;20127;-78
2023/06/16 10:09:07;;;;;;;11.07;5.05;;;;;;;;;;5074944;28;20060;-80
2023/06/16 10:11:33;;;;;;;8.15;4.25;;;;;;;;;;5073794;28;20055;-77
2023/06/16 10:14:02;;;;;;;8.40;4.50;;;;;;;;;;5073858;28;20052;-77
2023/06/16 10:16:30;;;;;;;13.68;5.28;;;;;;;;;;5073348;28;20076;-80
2023/06/16 10:18:59;;;;;;;8.82;5.25;;;;;;;;;;5073756;28;20537;-77
2023/06/16 10:21:26;;;;;;;9.10;4.65;;;;;;;;;;5073841;28;20056;-77
2023/06/16 10:23:52;;;;;;;8.25;4.30;;;;;;;;;;5073585;28;20052;-77
2023/06/16 10:26:19;;;;;;;8.05;4.47;;;;;;;;;;5073559;28;20432;-77
2023/06/16 10:28:46;;;;;;;5.93;3.60;;;;;;;;;;5074251;28;20048;-77
2023/06/16 10:31:14;;;;;;;5.93;3.95;;;;;;;;;;5056802;28;20059;-77
2023/06/16 10:33:54;;;;;;;8.55;3.80;;;;;;;;;;5073048;28;20091;-77
2023/06/16 10:36:24;;;;;;;6.28;4.00;;;;;;;;;;5073258;28;20036;-77
2023/06/16 10:39:12;;;;;;;6.13;3.47;;;;;;;;;;5075784;28;20048;-77
2023/06/16 10:41:58;;;;;;;6.03;3.58;;;;;;;;;;5073217;28;20048;-77
2023/06/16 10:44:25;;;;;;;5.38;3.40;;;;;;;;;;5073241;28;20370;-77
2023/06/16 10:47:06;;;;;;;6.38;3.58;;;;;;;;;;5073960;28;20067;-77
2023/06/16 10:49:32;;;;;;;6.50;3.38;;;;;;;;;;5081557;28;20055;-77
2023/06/16 10:51:59;;;;;;;5.10;3.30;;;;;;;;;;5079738;28;20094;-77
2023/06/16 10:54:37;;;;;;;6.47;3.42;;;;;;;;;;5073115;28;20144;-77
2023/06/16 10:57:04;;;;;;;6.55;3.50;;;;;;;;;;5074159;28;20044;-78
2023/06/16 10:59:30;;;;;;;6.00;3.03;;;;;;;;;;5072919;28;20416;-77
2023/06/16 11:01:57;;;;;;;5.05;3.22;;;;;;;;;;5072689;28;20059;-78
2023/06/16 11:04:24;;;;;;;5.80;3.30;;;;;;;;;;5073423;28;20044;-77
2023/06/16 11:07:07;;;;;;;5.07;2.92;;;;;;;;;;5070610;28;20113;-78
2023/06/16 11:09:35;;;;;;;4.72;3.00;;;;;;;;;;5068441;28;20052;-78
2023/06/16 11:12:01;;;;;;;5.30;3.28;;;;;;;;;;5055048;28;20070;-80
2023/06/16 11:14:28;;;;;;;7.25;3.20;;;;;;;;;;5086930;28;20083;-78
2023/06/16 11:16:54;;;;;;;5.43;3.20;;;;;;;;;;5071680;28;20061;-78
2023/06/16 11:19:21;;;;;;;7.47;3.08;;;;;;;;;;5084092;28;20052;-77
2023/06/16 11:21:47;;;;;;;4.25;2.58;;;;;;;;;;5078996;28;20087;-78
2023/06/16 11:24:14;;;;;;;5.90;3.10;;;;;;;;;;5077568;28;20048;-78
2023/06/16 11:26:41;;;;;;;4.38;2.78;;;;;;;;;;5081482;28;20048;-79
2023/06/16 11:29:07;;;;;;;5.53;3.42;;;;;;;;;;5076208;28;20055;-79
2023/06/16 11:31:35;;;;;;;5.97;2.92;;;;;;;;;;5093555;28;20047;-78
2023/06/16 11:34:05;;;;;;;5.78;3.03;;;;;;;;;;5086892;28;20106;-78
2023/06/16 11:36:35;;;;;;;8.05;3.28;;;;;;;;;;5083532;28;20052;-78
2023/06/16 11:39:04;;;;;;;6.13;3.13;;;;;;;;;;5052082;28;20064;-79
2023/06/16 11:41:30;;;;;;;25.67;3.00;;;;;;;;;;5067127;28;20109;-79
2023/06/16 11:43:57;;;;;;;6.10;2.95;;;;;;;;;;5062550;28;20139;-78
2023/06/16 11:46:24;;;;;;;4.63;2.45;;;;;;;;;;5097882;28;20040;-77
2023/06/16 11:48:53;;;;;;;4.32;2.90;;;;;;;;;;5078788;28;20443;-81
2023/06/16 11:51:19;;;;;;;5.13;2.80;;;;;;;;;;5066186;28;20044;-82
2023/06/16 11:53:46;;;;;;;4.60;2.67;;;;;;;;;;5069182;28;20091;-79
2023/06/16 11:56:13;;;;;;;5.70;2.50;;;;;;;;;;5085707;28;20153;-83
2023/06/16 11:58:40;;;;;;;5.30;2.80;;;;;;;;;;5073341;28;20055;-79
2023/06/16 12:01:06;;;;;;;4.45;2.90;;;;;;;;;;5060532;28;20049;-79
2023/06/16 12:03:36;;;;;;;5.72;2.75;;;;;;;;;;5072686;28;20047;-80
2023/06/16 12:06:03;;;;;;;4.57;2.90;;;;;;;;;;5090482;28;20036;-80
2023/06/16 12:08:42;;;;;;;3.65;2.30;;;;;;;;;;5057248;28;20045;-82
2023/06/16 12:11:21;;;;;;;6.80;2.90;;;;;;;;;;5091314;28;20493;-78
2023/06/16 12:13:47;;;;;;;6.07;3.00;;;;;;;;;;5084717;28;20159;-80
2023/06/16 12:16:15;;;;;;;6.90;2.65;;;;;;;;;;5060781;28;20048;-81
2023/06/16 12:18:41;;;;;;;4.88;2.70;;;;;;;;;;5063898;28;20504;-77
2023/06/16 12:21:20;;;;;;;5.78;2.60;;;;;;;;;;5073951;28;20044;-78
2023/06/16 12:23:47;;;;;;;6.57;2.70;;;;;;;;;;5088966;28;20433;-81
2023/06/16 12:26:28;;;;;;;5.40;2.78;;;;;;;;;;5066436;28;20045;-77
2023/06/16 12:28:55;;;;;;;5.20;2.58;;;;;;;;;;5083560;28;20083;-78
2023/06/16 12:31:22;;;;;;;4.00;2.53;;;;;;;;;;5096811;28;20047;-78
2023/06/16 12:33:52;;;;;;;39.70;4.88;;;;;;;;;;5069182;28;20111;-78
2023/06/16 12:36:18;;;;;;;7.53;2.60;;;;;;;;;;5070248;28;20044;-77
2023/06/16 12:38:44;;;;;;;5.55;2.53;;;;;;;;;;5073219;28;20072;-86
2023/06/16 12:41:14;;;;;;;6.90;2.45;;;;;;;;;;5080860;28;20105;-78
2023/06/16 12:43:51;;;;;;;4.97;2.55;;;;;;;;;;5087535;28;20044;-77
2023/06/16 12:46:17;;;;;;;4.82;2.45;;;;;;;;;;5089709;28;20056;-80
2023/06/16 12:48:43;;;;;;;29.25;4.57;;;;;;;;;;5080199;28;20131;-79
2023/06/16 12:51:13;;;;;;;4.82;2.42;;;;;;;;;;5083946;28;20398;-81
2023/06/16 12:53:42;;;;;;;6.22;2.80;;;;;;;;;;5065860;28;20075;-80
2023/06/16 12:56:09;;;;;;;11.85;3.30;;;;;;;;;;5089368;28;20037;-79
2023/06/16 12:58:39;;;;;;;6.95;2.80;;;;;;;;;;5074757;28;20100;-78
2023/06/16 13:01:10;;;;;;;4.13;2.80;;;;;;;;;;5097399;28;20071;-78
2023/06/16 13:03:40;;;;;;;6.45;2.90;;;;;;;;;;5093338;28;20055;-79
2023/06/16 13:06:06;;;;;;;7.35;2.72;;;;;;;;;;5077413;28;20520;-77
2023/06/16 13:08:32;;;;;;;5.50;2.95;;;;;;;;;;5074952;28;20052;-77
2023/06/16 13:10:58;;;;;;;6.20;3.05;;;;;;;;;;5086940;28;20040;-77
2023/06/16 13:13:24;;;;;;;5.05;2.88;;;;;;;;;;5070158;28;20524;-77
2023/06/16 13:15:50;;;;;;;5.75;2.88;;;;;;;;;;5077564;28;20059;-79
2023/06/16 13:18:16;;;;;;;5.78;2.80;;;;;;;;;;5074324;28;20060;-75
2023/06/16 13:20:43;;;;;;;5.20;2.78;;;;;;;;;;5080973;28;20524;-81
2023/06/16 13:23:10;;;;;;;21.02;3.55;;;;;;;;;;5078200;28;20274;-77
2023/06/16 13:25:36;;;;;;;7.85;3.00;;;;;;;;;;5094955;28;20086;-75
2023/06/16 13:28:02;;;;;;;4.43;2.78;;;;;;;;;;5095397;28;20058;-76
2023/06/16 13:30:28;;;;;;;8.63;3.20;;;;;;;;;;5078169;28;20052;-76
2023/06/16 13:32:54;;;;;;;5.45;2.78;;;;;;;;;;5095097;28;20131;-77
2023/06/16 13:35:20;;;;;;;5.80;2.50;;;;;;;;;;5078051;28;20048;-75
2023/06/16 13:37:47;;;;;;;4.07;2.60;;;;;;;;;;5077752;28;20047;-78
2023/06/16 13:40:13;;;;;;;4.65;2.60;;;;;;;;;;5094524;28;20054;-75
2023/06/16 13:42:39;;;;;;;4.22;2.42;;;;;;;;;;5092809;28;20504;-76
2023/06/16 13:45:05;;;;;;;7.50;3.20;;;;;;;;;;5074089;28;20640;-76
2023/06/16 13:47:32;;;;;;;6.00;2.50;;;;;;;;;;5073836;28;20174;-76
2023/06/16 13:49:58;;;;;;;4.47;2.75;;;;;;;;;;5074019;28;20076;-75
2023/06/16 13:52:24;;;;;;;3.10;2.17;;;;;;;;;;5061074;28;20047;-76
2023/06/16 13:54:50;;;;;;;5.05;2.55;;;;;;;;;;5070619;28;20045;-76
2023/06/16 13:57:16;;;;;;;3.13;2.13;;;;;;;;;;5054756;28;20044;-77
2023/06/16 13:59:42;;;;;;;3.75;2.50;;;;;;;;;;5054137;28;20056;-76
2023/06/16 14:02:08;;;;;;;9.10;2.83;;;;;;;;;;5037410;28;20048;-76
2023/06/16 14:04:34;;;;;;;5.15;2.20;;;;;;;;;;5070211;28;20154;-75
2023/06/16 14:07:01;;;;;;;6.25;2.40;;;;;;;;;;5073575;28;20041;-76
2023/06/16 14:09:27;;;;;;;4.57;2.53;;;;;;;;;;5075016;28;20727;-75
2023/06/16 14:11:53;;;;;;;3.63;2.40;;;;;;;;;;5073890;28;20059;-81
2023/06/16 14:14:20;;;;;;;7.32;2.63;;;;;;;;;;5056887;28;20087;-76
2023/06/16 14:16:46;;;;;;;5.72;2.60;;;;;;;;;;5073551;28;20128;-76
2023/06/16 14:19:12;;;;;;;4.47;2.40;;;;;;;;;;5074132;28;20099;-75
2023/06/16 14:21:38;;;;;;;4.70;2.58;;;;;;;;;;5073662;28;20040;-75
2023/06/16 14:24:05;;;;;;;4.70;2.35;;;;;;;;;;5072094;28;20044;-76
2023/06/16 14:26:31;;;;;;;4.60;2.30;;;;;;;;;;5073266;28;20084;-75
2023/06/16 14:28:57;;;;;;;3.58;2.50;;;;;;;;;;5067311;28;20490;-80
2023/06/16 14:31:23;;;;;;;4.00;2.60;;;;;;;;;;5073334;28;20048;-75
2023/06/16 14:33:49;;;;;;;3.95;2.60;;;;;;;;;;5073171;28;20548;-75
2023/06/16 14:36:16;;;;;;;5.05;2.40;;;;;;;;;;5073012;28;20044;-75
2023/06/16 14:38:42;;;;;;;3.17;2.30;;;;;;;;;;5073414;28;20056;-76
2023/06/16 14:41:08;;;;;;;4.18;2.35;;;;;;;;;;5072897;28;20070;-76
2023/06/16 14:43:34;;;;;;;5.93;2.45;;;;;;;;;;5060588;28;20060;-75
2023/06/16 14:46:00;;;;;;;9.32;2.83;;;;;;;;;;5053181;28;20051;-78
2023/06/16 14:48:26;;;;;;;4.97;2.60;;;;;;;;;;5068708;28;20560;-75